createdAt,value
2022-09-28T00:00:29.156Z,72195.25
2022-09-28T00:01:06.894Z,72195.25
2022-09-28T00:01:41.783Z,72191.25
2022-09-28T00:02:16.777Z,72191.25
2022-09-28T00:02:49.194Z,72193.25
2022-09-28T00:03:24.018Z,72193.25
2022-09-28T00:03:58.295Z,72187.28
2022-09-28T00:04:30.473Z,72191.25
2022-09-28T00:05:05.300Z,72191.25
2022-09-28T00:05:37.500Z,72187.28
2022-09-28T00:06:13.104Z,72189.25
2022-09-28T00:06:45.275Z,72187.28
2022-09-28T00:07:20.063Z,72183.28
2022-09-28T00:07:52.376Z,72189.25
2022-09-28T00:08:24.635Z,72187.28
2022-09-28T00:08:57.275Z,72187.28
2022-09-28T00:09:32.068Z,72183.28
2022-09-28T00:10:04.724Z,72183.28
2022-09-28T00:10:36.908Z,72179.28
2022-09-28T00:11:15.740Z,72183.28
2022-09-28T00:11:47.974Z,72183.28
2022-09-28T00:12:21.860Z,72183.28
2022-09-28T00:12:57.036Z,72175.28
2022-09-28T00:13:29.973Z,72175.28
2022-09-28T00:14:03.786Z,72169.31
2022-09-28T00:14:40.620Z,72183.28
2022-09-28T00:15:12.832Z,72171.31
2022-09-28T00:15:45.005Z,72179.28
2022-09-28T00:16:20.978Z,72175.28
2022-09-28T00:16:53.212Z,72171.31
2022-09-28T00:17:28.092Z,72177.28
2022-09-28T00:18:02.922Z,72171.31
2022-09-28T00:18:36.211Z,72169.31
2022-09-28T00:19:10.754Z,72171.31
2022-09-28T00:19:46.126Z,72177.28
2022-09-28T00:20:19.502Z,72175.28
2022-09-28T00:21:00.488Z,72173.28
2022-09-28T00:21:37.451Z,72169.31
2022-09-28T00:22:09.730Z,72167.31
2022-09-28T00:22:41.971Z,72163.31
2022-09-28T00:23:16.804Z,72165.31
2022-09-28T00:24:07.061Z,72159.31
2022-09-28T00:24:39.281Z,72163.31
2022-09-28T00:25:14.145Z,72167.31
2022-09-28T00:25:46.337Z,72167.31
2022-09-28T00:26:18.511Z,72167.31
2022-09-28T00:26:55.354Z,72163.31
2022-09-28T00:27:27.539Z,72171.31
2022-09-28T00:27:59.773Z,72165.31
2022-09-28T00:28:32.010Z,72167.31
2022-09-28T00:29:07.226Z,72163.31
2022-09-28T00:29:39.483Z,72155.34
2022-09-28T00:30:16.511Z,72163.31
2022-09-28T00:30:55.018Z,72157.34
2022-09-28T00:31:29.315Z,72157.34
2022-09-28T00:32:06.488Z,72155.34
2022-09-28T00:32:41.264Z,72163.31
2022-09-28T00:33:17.888Z,72155.34
2022-09-28T00:33:53.130Z,72155.34
2022-09-28T00:34:25.476Z,72151.34
2022-09-28T00:34:57.705Z,72157.34
2022-09-28T00:35:32.488Z,72155.34
2022-09-28T00:36:05.997Z,72151.34
2022-09-28T00:36:38.221Z,72151.34
2022-09-28T00:37:13.348Z,72145.34
2022-09-28T00:37:45.525Z,72149.34
2022-09-28T00:38:17.717Z,72149.34
2022-09-28T00:38:50.433Z,72149.34
2022-09-28T00:39:25.500Z,72147.34
2022-09-28T00:39:58.099Z,72145.34
2022-09-28T00:40:30.344Z,72147.34
2022-09-28T00:41:05.664Z,72143.38
2022-09-28T00:41:37.876Z,72147.34
2022-09-28T00:42:14.421Z,72143.38
2022-09-28T00:42:49.201Z,72143.38
2022-09-28T00:43:21.841Z,72139.38
2022-09-28T00:43:55.033Z,72143.38
2022-09-28T00:44:44.409Z,72135.38
2022-09-28T00:45:16.796Z,72139.38
2022-09-28T00:45:55.631Z,72129.41
2022-09-28T00:46:34.525Z,72139.38
2022-09-28T00:47:18.623Z,72127.41
2022-09-28T00:47:58.271Z,72137.38
2022-09-28T00:48:36.313Z,72135.38
2022-09-28T00:49:12.411Z,72129.41
2022-09-28T00:49:51.031Z,72135.38
2022-09-28T00:50:26.258Z,72127.41
2022-09-28T00:51:02.209Z,72127.41
2022-09-28T00:51:34.856Z,72125.41
2022-09-28T00:52:08.039Z,72127.41
2022-09-28T00:52:46.543Z,72123.41
2022-09-28T00:53:22.131Z,72135.38
2022-09-28T00:53:54.840Z,72123.41
2022-09-28T00:54:29.632Z,72125.41
2022-09-28T00:55:05.189Z,72123.41
2022-09-28T00:55:43.653Z,72125.41
2022-09-28T00:56:19.267Z,72123.41
2022-09-28T00:56:51.692Z,72119.41
2022-09-28T00:57:27.372Z,72117.41
2022-09-28T00:58:01.191Z,72117.41
2022-09-28T00:58:37.150Z,72119.41
2022-09-28T00:59:12.041Z,72115.44
2022-09-28T00:59:44.744Z,72115.44
2022-09-28T01:00:17.128Z,72115.44
2022-09-28T01:00:52.249Z,72113.44
2022-09-28T01:01:24.733Z,72103.44
2022-09-28T01:01:57.056Z,72111.44
2022-09-28T01:02:29.377Z,72107.44
2022-09-28T01:03:07.101Z,72109.44
2022-09-28T01:03:41.391Z,72107.44
2022-09-28T01:04:14.201Z,72107.44
2022-09-28T01:04:49.249Z,72107.44
2022-09-28T01:05:22.021Z,72105.44
2022-09-28T01:05:55.921Z,72111.44
2022-09-28T01:06:34.106Z,72107.44
2022-09-28T01:07:07.730Z,72103.44
2022-09-28T01:07:41.062Z,72103.44
2022-09-28T01:08:16.242Z,72101.44
2022-09-28T01:08:51.278Z,72105.44
2022-09-28T01:09:25.753Z,72095.47
2022-09-28T01:10:00.613Z,72097.47
2022-09-28T01:10:33.884Z,72091.47
2022-09-28T01:11:06.597Z,72093.47
2022-09-28T01:11:39.415Z,72091.47
2022-09-28T01:12:16.397Z,72085.50
2022-09-28T01:12:48.611Z,72091.47
2022-09-28T01:13:21.910Z,72091.47
2022-09-28T01:13:59.148Z,72085.50
2022-09-28T01:14:31.466Z,72091.47
2022-09-28T01:15:06.320Z,72085.50
2022-09-28T01:15:46.492Z,72083.50
2022-09-28T01:16:23.529Z,72091.47
2022-09-28T01:17:03.226Z,72079.50
2022-09-28T01:17:58.282Z,72077.50
2022-09-28T01:18:47.639Z,72079.50
2022-09-28T01:19:38.469Z,72075.50
2022-09-28T01:20:36.171Z,72079.50
2022-09-28T01:21:11.168Z,72081.50
2022-09-28T01:21:53.973Z,72071.53
2022-09-28T01:22:42.168Z,72067.53
2022-09-28T01:23:30.792Z,72067.53
2022-09-28T01:24:16.755Z,72059.53
2022-09-28T01:24:49.886Z,72063.53
2022-09-28T01:25:29.769Z,72059.53
2022-09-28T01:26:34.696Z,72059.53
2022-09-28T01:27:11.703Z,72055.56
2022-09-28T01:27:49.430Z,72055.56
2022-09-28T01:28:26.130Z,72051.56
2022-09-28T01:29:03.736Z,72051.56
2022-09-28T01:29:48.184Z,72055.56
2022-09-28T01:30:22.061Z,72051.56
2022-09-28T01:31:01.211Z,72051.56
2022-09-28T01:31:37.267Z,72051.56
2022-09-28T01:32:16.839Z,72049.56
2022-09-28T01:32:55.307Z,72051.56
2022-09-28T01:33:32.815Z,72051.56
2022-09-28T01:34:09.414Z,72049.56
2022-09-28T01:34:48.413Z,72051.56
2022-09-28T01:35:24.543Z,72051.56
2022-09-28T01:36:00.175Z,72047.56
2022-09-28T01:36:38.864Z,72043.59
2022-09-28T01:37:12.005Z,72045.56
2022-09-28T01:37:47.645Z,72047.56
2022-09-28T01:38:25.240Z,72045.56
2022-09-28T01:39:01.419Z,72039.59
2022-09-28T01:39:36.723Z,72043.59
2022-09-28T01:40:13.392Z,72043.59
2022-09-28T01:40:47.217Z,72045.56
2022-09-28T01:41:22.732Z,72037.59
2022-09-28T01:42:00.524Z,72041.59
2022-09-28T01:42:34.111Z,72037.59
2022-09-28T01:43:14.015Z,72043.59
2022-09-28T01:43:49.996Z,72043.59
2022-09-28T01:44:24.087Z,72035.59
2022-09-28T01:45:06.984Z,72035.59
2022-09-28T01:45:44.336Z,72035.59
2022-09-28T01:46:19.806Z,72035.59
2022-09-28T01:47:00.971Z,72031.59
2022-09-28T01:47:37.417Z,72033.59
2022-09-28T01:48:11.455Z,72031.59
2022-09-28T01:48:49.714Z,72035.59
2022-09-28T01:49:27.339Z,72027.63
2022-09-28T01:50:04.130Z,72027.63
2022-09-28T01:50:42.578Z,72027.63
2022-09-28T01:51:19.014Z,72025.63
2022-09-28T01:51:55.513Z,72027.63
2022-09-28T01:52:34.548Z,72029.63
2022-09-28T01:53:11.888Z,72023.63
2022-09-28T01:53:47.952Z,72027.63
2022-09-28T01:54:31.300Z,72019.63
2022-09-28T01:55:10.979Z,72025.63
2022-09-28T01:55:45.380Z,72021.63
2022-09-28T01:56:25.685Z,72021.63
2022-09-28T01:57:00.935Z,72023.63
2022-09-28T01:57:38.931Z,72021.63
2022-09-28T01:58:16.798Z,72019.63
2022-09-28T01:58:51.953Z,72019.63
2022-09-28T01:59:26.388Z,72015.66
2022-09-28T02:00:04.070Z,72019.63
2022-09-28T02:00:50.228Z,72013.66
2022-09-28T02:01:29.732Z,72015.66
2022-09-28T02:02:05.841Z,72013.66
2022-09-28T02:02:42.312Z,72011.66
2022-09-28T02:03:20.281Z,72009.66
2022-09-28T02:04:05.017Z,72003.66
2022-09-28T02:04:41.244Z,72005.66
2022-09-28T02:05:20.043Z,72007.66
2022-09-28T02:05:56.624Z,72007.66
2022-09-28T02:06:32.354Z,71995.69
2022-09-28T02:07:10.829Z,71995.69
2022-09-28T02:07:45.444Z,72001.69
2022-09-28T02:08:21.947Z,72001.69
2022-09-28T02:09:01.805Z,72001.69
2022-09-28T02:09:47.485Z,71991.69
2022-09-28T02:10:21.985Z,71999.69
2022-09-28T02:11:00.260Z,71991.69
2022-09-28T02:11:37.496Z,71997.69
2022-09-28T02:12:14.168Z,71989.69
2022-09-28T02:12:51.695Z,71991.69
2022-09-28T02:13:26.048Z,71993.69
2022-09-28T02:14:04.397Z,71995.69
2022-09-28T02:14:38.597Z,71983.72
2022-09-28T02:15:13.270Z,71995.69
2022-09-28T02:15:52.168Z,71995.69
2022-09-28T02:16:29.597Z,71991.69
2022-09-28T02:17:02.166Z,71995.69
2022-09-28T02:17:39.480Z,71989.69
2022-09-28T02:18:11.982Z,71987.72
2022-09-28T02:18:45.236Z,71987.72
2022-09-28T02:19:25.911Z,71991.69
2022-09-28T02:19:58.155Z,71987.72
2022-09-28T02:20:32.993Z,71987.72
2022-09-28T02:21:11.972Z,71987.72
2022-09-28T02:21:48.645Z,71991.69
2022-09-28T02:22:28.337Z,71991.69
2022-09-28T02:23:02.328Z,71987.72
2022-09-28T02:23:36.801Z,71981.72
2022-09-28T02:24:21.281Z,71985.72
2022-09-28T02:24:56.574Z,71979.72
2022-09-28T02:25:37.881Z,71989.69
2022-09-28T02:26:13.172Z,71983.72
2022-09-28T02:26:49.348Z,71975.72
2022-09-28T02:27:29.983Z,71979.72
2022-09-28T02:28:03.906Z,71975.72
2022-09-28T02:28:36.283Z,71977.72
2022-09-28T02:29:11.498Z,71983.72
2022-09-28T02:29:43.724Z,71975.72
2022-09-28T02:30:16.756Z,71971.75
2022-09-28T02:30:51.565Z,71971.75
2022-09-28T02:31:24.051Z,71967.75
2022-09-28T02:31:56.343Z,71967.75
2022-09-28T02:32:31.973Z,71967.75
2022-09-28T02:33:09.359Z,71969.75
2022-09-28T02:33:43.792Z,71963.75
2022-09-28T02:34:19.324Z,71963.75
2022-09-28T02:34:51.686Z,71961.75
2022-09-28T02:35:23.983Z,71965.75
2022-09-28T02:35:56.264Z,71963.75
2022-09-28T02:36:32.948Z,71967.75
2022-09-28T02:37:05.223Z,71969.75
2022-09-28T02:37:37.491Z,71957.78
2022-09-28T02:38:13.410Z,71963.75
2022-09-28T02:38:45.696Z,71959.75
2022-09-28T02:39:19.205Z,71963.75
2022-09-28T02:39:51.744Z,71955.78
2022-09-28T02:40:28.749Z,71961.75
2022-09-28T02:41:06.202Z,71963.75
2022-09-28T02:41:53.005Z,71959.75
2022-09-28T02:42:32.391Z,71965.75
2022-09-28T02:43:11.910Z,71967.75
2022-09-28T02:43:52.808Z,71955.78
2022-09-28T02:44:50.749Z,71957.78
2022-09-28T02:45:33.839Z,71957.78
2022-09-28T02:46:20.793Z,71957.78
2022-09-28T02:47:00.294Z,71959.75
2022-09-28T02:47:52.751Z,71959.75
2022-09-28T02:48:43.681Z,71963.75
2022-09-28T02:49:26.961Z,71963.75
2022-09-28T02:50:05.188Z,71959.75
2022-09-28T02:50:42.743Z,71959.75
2022-09-28T02:51:25.008Z,71955.78
2022-09-28T02:52:08.686Z,71959.75
2022-09-28T02:52:54.236Z,71957.78
2022-09-28T02:53:53.020Z,71963.75
2022-09-28T02:54:57.326Z,71959.75
2022-09-28T02:55:45.037Z,71957.78
2022-09-28T02:56:36.545Z,71955.78
2022-09-28T02:57:22.492Z,71957.78
2022-09-28T02:58:07.999Z,71959.75
2022-09-28T02:58:48.043Z,71955.78
2022-09-28T02:59:33.877Z,71963.75
2022-09-28T03:00:09.063Z,71957.78
2022-09-28T03:00:45.672Z,71955.78
2022-09-28T03:01:28.073Z,71951.78
2022-09-28T03:02:03.916Z,71953.78
2022-09-28T03:02:43.530Z,71955.78
2022-09-28T03:03:25.343Z,71955.78
2022-09-28T03:04:06.698Z,71947.78
2022-09-28T03:04:44.224Z,71943.81
2022-09-28T03:05:34.412Z,71943.81
2022-09-28T03:06:11.723Z,71945.78
2022-09-28T03:06:55.914Z,71947.78
2022-09-28T03:07:39.185Z,71939.81
2022-09-28T03:08:17.626Z,71939.81
2022-09-28T03:08:54.340Z,71939.81
2022-09-28T03:09:37.146Z,71943.81
2022-09-28T03:10:14.113Z,71939.81
2022-09-28T03:10:50.162Z,71937.81
2022-09-28T03:11:27.890Z,71941.81
2022-09-28T03:12:06.284Z,71935.81
2022-09-28T03:12:45.842Z,71935.81
2022-09-28T03:13:20.974Z,71935.81
2022-09-28T03:13:56.781Z,71939.81
2022-09-28T03:14:40.157Z,71937.81
2022-09-28T03:15:20.773Z,71937.81
2022-09-28T03:16:10.607Z,71931.81
2022-09-28T03:16:43.994Z,71935.81
2022-09-28T03:17:16.329Z,71939.81
2022-09-28T03:17:51.453Z,71927.84
2022-09-28T03:18:23.728Z,71929.84
2022-09-28T03:18:55.983Z,71931.81
2022-09-28T03:19:33.539Z,71931.81
2022-09-28T03:20:07.452Z,71929.84
2022-09-28T03:20:42.316Z,71927.84
2022-09-28T03:21:15.272Z,71925.84
2022-09-28T03:21:47.661Z,71925.84
2022-09-28T03:22:25.478Z,71919.84
2022-09-28T03:23:20.134Z,71927.84
2022-09-28T03:23:53.169Z,71929.84
2022-09-28T03:24:25.501Z,71923.84
2022-09-28T03:24:57.762Z,71923.84
2022-09-28T03:25:33.048Z,71919.84
2022-09-28T03:26:05.712Z,71923.84
2022-09-28T03:26:39.128Z,71923.84
2022-09-28T03:27:14.452Z,71923.84
2022-09-28T03:27:49.262Z,71915.88
2022-09-28T03:28:22.234Z,71923.84
2022-09-28T03:28:57.837Z,71923.84
2022-09-28T03:29:33.191Z,71921.84
2022-09-28T03:30:10.876Z,71919.84
2022-09-28T03:30:47.511Z,71917.84
2022-09-28T03:31:19.910Z,71919.84
2022-09-28T03:31:52.322Z,71923.84
2022-09-28T03:32:27.189Z,71923.84
2022-09-28T03:33:00.416Z,71923.84
2022-09-28T03:33:35.623Z,71923.84
2022-09-28T03:34:13.345Z,71923.84
2022-09-28T03:34:47.553Z,71927.84
2022-09-28T03:35:20.260Z,71921.84
2022-09-28T03:35:56.910Z,71921.84
2022-09-28T03:36:32.721Z,71921.84
2022-09-28T03:37:05.048Z,71923.84
2022-09-28T03:37:37.732Z,71923.84
2022-09-28T03:38:15.838Z,71923.84
2022-09-28T03:38:49.599Z,71927.84
2022-09-28T03:39:27.599Z,71927.84
2022-09-28T03:40:00.735Z,71935.81
2022-09-28T03:40:34.379Z,71935.81
2022-09-28T03:41:16.146Z,71931.81
2022-09-28T03:41:50.487Z,71927.84
2022-09-28T03:42:24.901Z,71931.81
2022-09-28T03:43:03.551Z,71931.81
2022-09-28T03:43:37.544Z,71927.84
2022-09-28T03:44:10.531Z,71927.84
2022-09-28T03:44:49.636Z,71929.84
2022-09-28T03:45:22.925Z,71929.84
2022-09-28T03:46:00.504Z,71919.84
2022-09-28T03:46:36.776Z,71923.84
2022-09-28T03:47:12.478Z,71919.84
2022-09-28T03:47:46.404Z,71923.84
2022-09-28T03:48:27.622Z,71919.84
2022-09-28T03:49:02.189Z,71923.84
2022-09-28T03:49:34.628Z,71919.84
2022-09-28T03:50:10.517Z,71917.84
2022-09-28T03:50:42.846Z,71915.88
2022-09-28T03:51:18.324Z,71911.88
2022-09-28T03:51:53.155Z,71909.88
2022-09-28T03:52:27.390Z,71917.84
2022-09-28T03:53:07.107Z,71913.88
2022-09-28T03:53:40.396Z,71911.88
2022-09-28T03:54:14.245Z,71911.88
2022-09-28T03:54:52.995Z,71915.88
2022-09-28T03:55:27.441Z,71911.88
2022-09-28T03:56:03.828Z,71915.88
2022-09-28T03:56:39.969Z,71907.88
2022-09-28T03:57:12.156Z,71915.88
2022-09-28T03:57:53.873Z,71907.88
2022-09-28T03:58:28.978Z,71907.88
2022-09-28T03:59:05.993Z,71907.88
2022-09-28T03:59:38.232Z,71907.88
2022-09-28T04:00:11.820Z,71909.88
2022-09-28T04:00:49.689Z,71909.88
2022-09-28T04:01:22.176Z,71905.88
2022-09-28T04:01:57.086Z,71903.88
2022-09-28T04:02:35.898Z,71907.88
2022-09-28T04:03:09.296Z,71899.91
2022-09-28T04:03:41.837Z,71903.88
2022-09-28T04:04:17.350Z,71901.91
2022-09-28T04:04:53.378Z,71899.91
2022-09-28T04:05:31.473Z,71899.91
2022-09-28T04:06:06.317Z,71899.91
2022-09-28T04:06:38.582Z,71899.91
2022-09-28T04:07:11.256Z,71895.91
2022-09-28T04:07:50.569Z,71899.91
2022-09-28T04:08:24.993Z,71895.91
2022-09-28T04:09:03.177Z,71891.91
2022-09-28T04:09:35.561Z,71893.91
2022-09-28T04:10:10.453Z,71891.91
2022-09-28T04:10:47.636Z,71893.91
2022-09-28T04:11:20.856Z,71891.91
2022-09-28T04:12:04.246Z,71887.94
2022-09-28T04:12:39.363Z,71887.94
2022-09-28T04:13:12.068Z,71887.94
2022-09-28T04:13:51.179Z,71875.94
2022-09-28T04:14:24.758Z,71881.94
2022-09-28T04:14:57.024Z,71883.94
2022-09-28T04:15:35.355Z,71879.94
2022-09-28T04:16:11.130Z,71883.94
2022-09-28T04:16:44.668Z,71879.94
2022-09-28T04:17:23.137Z,71875.94
2022-09-28T04:17:55.389Z,71867.97
2022-09-28T04:18:47.932Z,71873.97
2022-09-28T04:19:41.812Z,71871.97
2022-09-28T04:20:33.360Z,71871.97
2022-09-28T04:21:15.453Z,71879.94
2022-09-28T04:21:51.172Z,71879.94
2022-09-28T04:22:23.507Z,71879.94
2022-09-28T04:22:58.317Z,71879.94
2022-09-28T04:23:30.790Z,71879.94
2022-09-28T04:24:03.019Z,71867.97
2022-09-28T04:24:37.845Z,71879.94
2022-09-28T04:25:10.941Z,71875.94
2022-09-28T04:25:47.249Z,71879.94
2022-09-28T04:26:23.892Z,71879.94
2022-09-28T04:27:18.332Z,71879.94
2022-09-28T04:28:06.169Z,71879.94
2022-09-28T04:28:53.464Z,71881.94
2022-09-28T04:29:33.281Z,71871.97
2022-09-28T04:30:09.140Z,71869.97
2022-09-28T04:30:48.483Z,71869.97
2022-09-28T04:31:26.521Z,71875.94
2022-09-28T04:32:03.898Z,71873.97
2022-09-28T04:32:44.515Z,71865.97
2022-09-28T04:33:16.745Z,71879.94
2022-09-28T04:33:49.261Z,71871.97
2022-09-28T04:34:29.007Z,71869.97
2022-09-28T04:35:04.875Z,71869.97
2022-09-28T04:35:37.359Z,71867.97
2022-09-28T04:36:12.813Z,71863.97
2022-09-28T04:36:48.110Z,71871.97
2022-09-28T04:37:20.415Z,71865.97
2022-09-28T04:37:56.661Z,71865.97
2022-09-28T04:38:51.369Z,71863.97
2022-09-28T04:39:24.484Z,71865.97
2022-09-28T04:40:01.404Z,71862.00
2022-09-28T04:40:33.805Z,71860.00
2022-09-28T04:41:06.274Z,71860.00
2022-09-28T04:41:41.128Z,71856.00
2022-09-28T04:42:13.340Z,71856.00
2022-09-28T04:42:45.532Z,71856.00
2022-09-28T04:43:22.689Z,71856.00
2022-09-28T04:43:55.203Z,71852.00
2022-09-28T04:44:32.742Z,71852.00
2022-09-28T04:45:13.883Z,71856.00
2022-09-28T04:45:49.900Z,71852.00
2022-09-28T04:46:22.743Z,71852.00
2022-09-28T04:47:09.135Z,71856.00
2022-09-28T04:48:10.264Z,71848.03
2022-09-28T04:49:04.623Z,71850.00
2022-09-28T04:49:53.972Z,71850.00
2022-09-28T04:50:31.994Z,71854.00
2022-09-28T04:51:28.521Z,71856.00
2022-09-28T04:52:04.346Z,71860.00
2022-09-28T04:52:38.723Z,71852.00
2022-09-28T04:53:17.760Z,71852.00
2022-09-28T04:53:50.237Z,71854.00
2022-09-28T04:54:28.174Z,71850.00
2022-09-28T04:55:01.844Z,71856.00
2022-09-28T04:55:36.452Z,71856.00
2022-09-28T04:56:16.031Z,71852.00
2022-09-28T04:56:49.701Z,71858.00
2022-09-28T04:57:23.297Z,71850.00
2022-09-28T04:57:59.136Z,71856.00
2022-09-28T04:58:36.281Z,71856.00
2022-09-28T04:59:10.055Z,71852.00
2022-09-28T04:59:48.534Z,71856.00
2022-09-28T05:00:26.551Z,71852.00
2022-09-28T05:01:13.422Z,71856.00
2022-09-28T05:02:12.120Z,71850.00
2022-09-28T05:03:21.228Z,71854.00
2022-09-28T05:04:14.360Z,71856.00
2022-09-28T05:05:00.981Z,71858.00
2022-09-28T05:06:07.029Z,71863.97
2022-09-28T05:06:47.377Z,71863.97
2022-09-28T05:07:19.593Z,71856.00
2022-09-28T05:07:54.459Z,71856.00
2022-09-28T05:08:27.696Z,71858.00
2022-09-28T05:08:59.957Z,71856.00
2022-09-28T05:09:38.256Z,71858.00
2022-09-28T05:10:11.243Z,71858.00
2022-09-28T05:10:47.808Z,71852.00
2022-09-28T05:11:21.751Z,71854.00
2022-09-28T05:11:54.089Z,71856.00
2022-09-28T05:12:32.380Z,71860.00
2022-09-28T05:13:05.268Z,71858.00
2022-09-28T05:13:41.912Z,71856.00
2022-09-28T05:14:16.847Z,71860.00
2022-09-28T05:14:51.663Z,71860.00
2022-09-28T05:15:23.901Z,71856.00
2022-09-28T05:16:05.057Z,71856.00
2022-09-28T05:16:41.662Z,71852.00
2022-09-28T05:17:34.632Z,71863.97
2022-09-28T05:18:20.172Z,71854.00
2022-09-28T05:19:09.113Z,71856.00
2022-09-28T05:19:41.376Z,71852.00
2022-09-28T05:20:14.081Z,71856.00
2022-09-28T05:20:47.217Z,71852.00
2022-09-28T05:21:22.096Z,71856.00
2022-09-28T05:21:54.840Z,71856.00
2022-09-28T05:22:27.049Z,71852.00
2022-09-28T05:23:03.472Z,71852.00
2022-09-28T05:23:35.696Z,71850.00
2022-09-28T05:24:08.426Z,71856.00
2022-09-28T05:24:46.537Z,71852.00
2022-09-28T05:25:19.397Z,71850.00
2022-09-28T05:26:23.257Z,71852.00
2022-09-28T05:26:55.515Z,71856.00
2022-09-28T05:27:27.786Z,71856.00
2022-09-28T05:28:15.360Z,71852.00
2022-09-28T05:29:10.275Z,71856.00
2022-09-28T05:30:26.327Z,71860.00
2022-09-28T05:31:27.345Z,71863.97
2022-09-28T05:32:14.183Z,71860.00
2022-09-28T05:33:09.280Z,71860.00
2022-09-28T05:33:54.120Z,71856.00
2022-09-28T05:34:26.318Z,71860.00
2022-09-28T05:35:01.966Z,71856.00
2022-09-28T05:35:49.822Z,71856.00
2022-09-28T05:36:26.877Z,71856.00
2022-09-28T05:37:02.099Z,71860.00
2022-09-28T05:37:36.708Z,71858.00
2022-09-28T05:38:12.406Z,71862.00
2022-09-28T05:38:44.601Z,71856.00
2022-09-28T05:39:19.480Z,71862.00
2022-09-28T05:39:51.801Z,71860.00
2022-09-28T05:40:24.095Z,71860.00
2022-09-28T05:41:03.139Z,71858.00
2022-09-28T05:41:38.134Z,71863.97
2022-09-28T05:42:10.710Z,71856.00
2022-09-28T05:42:45.624Z,71862.00
2022-09-28T05:43:18.697Z,71867.97
2022-09-28T05:43:51.749Z,71856.00
2022-09-28T05:44:26.997Z,71860.00
2022-09-28T05:45:00.683Z,71860.00
2022-09-28T05:45:38.225Z,71863.97
2022-09-28T05:46:10.604Z,71863.97
2022-09-28T05:46:46.033Z,71858.00
2022-09-28T05:47:21.125Z,71856.00
2022-09-28T05:47:53.720Z,71860.00
2022-09-28T05:48:30.181Z,71856.00
2022-09-28T05:49:02.727Z,71854.00
2022-09-28T05:49:35.057Z,71856.00
2022-09-28T05:50:12.086Z,71862.00
2022-09-28T05:50:45.148Z,71856.00
2022-09-28T05:51:20.148Z,71863.97
2022-09-28T05:51:52.796Z,71862.00
2022-09-28T05:52:25.886Z,71863.97
2022-09-28T05:53:03.440Z,71860.00
2022-09-28T05:53:35.726Z,71856.00
2022-09-28T05:54:11.659Z,71860.00
2022-09-28T05:54:47.413Z,71852.00
2022-09-28T05:55:19.641Z,71862.00
2022-09-28T05:55:54.463Z,71856.00
2022-09-28T05:56:26.692Z,71858.00
2022-09-28T05:56:58.883Z,71858.00
2022-09-28T05:57:34.954Z,71862.00
2022-09-28T05:58:08.438Z,71854.00
2022-09-28T05:58:40.701Z,71858.00
2022-09-28T05:59:17.047Z,71852.00
2022-09-28T05:59:49.429Z,71856.00
2022-09-28T06:00:21.739Z,71862.00
2022-09-28T06:01:04.031Z,71860.00
2022-09-28T06:01:36.506Z,71856.00
2022-09-28T06:02:15.311Z,71862.00
2022-09-28T06:02:59.093Z,71856.00
2022-09-28T06:03:34.034Z,71854.00
2022-09-28T06:04:07.965Z,71856.00
2022-09-28T06:04:41.041Z,71852.00
2022-09-28T06:05:16.009Z,71856.00
2022-09-28T06:05:48.384Z,71852.00
2022-09-28T06:06:23.223Z,71856.00
2022-09-28T06:06:55.504Z,71856.00
2022-09-28T06:07:28.675Z,71852.00
2022-09-28T06:08:04.485Z,71852.00
2022-09-28T06:08:36.979Z,71856.00
2022-09-28T06:09:26.577Z,71848.03
2022-09-28T06:10:15.780Z,71852.00
2022-09-28T06:10:51.112Z,71848.03
2022-09-28T06:11:27.082Z,71852.00
2022-09-28T06:12:00.408Z,71852.00
2022-09-28T06:12:43.496Z,71856.00
2022-09-28T06:13:20.130Z,71852.00
2022-09-28T06:13:57.193Z,71856.00
2022-09-28T06:14:32.260Z,71856.00
2022-09-28T06:15:05.509Z,71856.00
2022-09-28T06:15:40.529Z,71850.00
2022-09-28T06:16:17.626Z,71852.00
2022-09-28T06:16:50.490Z,71852.00
2022-09-28T06:17:25.341Z,71852.00
2022-09-28T06:18:17.524Z,71852.00
2022-09-28T06:19:11.008Z,71862.00
2022-09-28T06:20:10.327Z,71858.00
2022-09-28T06:21:05.957Z,71858.00
2022-09-28T06:21:47.832Z,71863.97
2022-09-28T06:22:20.064Z,71858.00
2022-09-28T06:23:13.482Z,71860.00
2022-09-28T06:23:49.011Z,71858.00
2022-09-28T06:24:22.185Z,71860.00
2022-09-28T06:24:57.135Z,71862.00
2022-09-28T06:25:30.599Z,71858.00
2022-09-28T06:26:02.852Z,71858.00
2022-09-28T06:26:38.397Z,71865.97
2022-09-28T06:27:11.665Z,71862.00
2022-09-28T06:27:43.980Z,71860.00
2022-09-28T06:28:19.224Z,71860.00
2022-09-28T06:28:51.544Z,71860.00
2022-09-28T06:29:23.839Z,71858.00
2022-09-28T06:30:01.940Z,71863.97
2022-09-28T06:30:35.462Z,71863.97
2022-09-28T06:31:10.717Z,71856.00
2022-09-28T06:31:52.447Z,71862.00
2022-09-28T06:32:24.672Z,71863.97
2022-09-28T06:33:01.461Z,71867.97
2022-09-28T06:33:35.833Z,71865.97
2022-09-28T06:34:12.578Z,71867.97
2022-09-28T06:34:45.068Z,71869.97
2022-09-28T06:35:18.083Z,71871.97
2022-09-28T06:35:52.947Z,71875.94
2022-09-28T06:36:25.153Z,71879.94
2022-09-28T06:36:57.441Z,71875.94
2022-09-28T06:37:33.147Z,71873.97
2022-09-28T06:38:07.147Z,71885.94
2022-09-28T06:38:42.383Z,71877.94
2022-09-28T06:39:14.960Z,71873.97
2022-09-28T06:39:47.268Z,71871.97
2022-09-28T06:40:23.065Z,71871.97
2022-09-28T06:40:57.256Z,71875.94
2022-09-28T06:41:30.785Z,71875.94
2022-09-28T06:42:08.484Z,71883.94
2022-09-28T06:43:00.684Z,71885.94
2022-09-28T06:43:55.470Z,71883.94
2022-09-28T06:44:47.212Z,71885.94
2022-09-28T06:45:34.372Z,71881.94
2022-09-28T06:46:29.000Z,71883.94
2022-09-28T06:47:38.551Z,71887.94
2022-09-28T06:48:17.648Z,71883.94
2022-09-28T06:48:50.290Z,71887.94
2022-09-28T06:49:58.025Z,71881.94
2022-09-28T06:50:36.028Z,71875.94
2022-09-28T06:51:29.263Z,71887.94
2022-09-28T06:52:03.165Z,71887.94
2022-09-28T06:52:57.237Z,71885.94
2022-09-28T06:53:38.169Z,71883.94
2022-09-28T06:54:18.123Z,71891.91
2022-09-28T06:55:06.769Z,71887.94
2022-09-28T06:55:50.921Z,71891.91
2022-09-28T06:56:23.420Z,71885.94
2022-09-28T06:56:55.616Z,71887.94
2022-09-28T06:57:30.444Z,71881.94
2022-09-28T06:58:04.427Z,71881.94
2022-09-28T06:58:36.875Z,71881.94
2022-09-28T06:59:11.756Z,71885.94
2022-09-28T06:59:44.372Z,71883.94
2022-09-28T07:00:16.815Z,71885.94
2022-09-28T07:00:55.843Z,71883.94
2022-09-28T07:01:28.659Z,71889.91
2022-09-28T07:02:14.458Z,71889.91
2022-09-28T07:03:17.548Z,71889.91
2022-09-28T07:04:08.214Z,71885.94
2022-09-28T07:04:59.189Z,71889.91
2022-09-28T07:06:04.936Z,71887.94
2022-09-28T07:06:47.192Z,71889.91
2022-09-28T07:07:40.664Z,71887.94
2022-09-28T07:08:26.369Z,71891.91
2022-09-28T07:09:35.047Z,71893.91
2022-09-28T07:10:26.016Z,71893.91
2022-09-28T07:11:17.645Z,71891.91
2022-09-28T07:12:13.290Z,71893.91
2022-09-28T07:12:56.319Z,71895.91
2022-09-28T07:13:49.963Z,71899.91
2022-09-28T07:14:46.085Z,71899.91
2022-09-28T07:15:20.826Z,71907.88
2022-09-28T07:15:57.829Z,71915.88
2022-09-28T07:16:49.497Z,71917.84
2022-09-28T07:17:25.108Z,71929.84
2022-09-28T07:18:02.756Z,71925.84
2022-09-28T07:18:42.363Z,71931.81
2022-09-28T07:19:16.594Z,71933.81
2022-09-28T07:19:53.002Z,71931.81
2022-09-28T07:20:25.726Z,71931.81
2022-09-28T07:20:58.018Z,71933.81
2022-09-28T07:21:33.672Z,71925.84
2022-09-28T07:22:08.002Z,71935.81
2022-09-28T07:22:43.993Z,71935.81
2022-09-28T07:23:22.292Z,71943.81